Latest Weather Observations for Kingfish B

IDV60801

Issued at 7:31 am EDT Sunday 1 March 2015 (issued every 30 minutes, with the page automatically refreshed every 10 minutes)

About weather observations | Map of weather stations | Latest weather observations for VIC | Other Formats
Station Details ID: 400139 Name: KINGFISH B (PLATFORM) Lat: -38.60 Lon: 148.19 Height: 31.4 m
Data from the previous 72 hours. | See also: Recent months for locations in Victoria
Date/Time
EDT
Temp
°C
App
Temp
°C
Dew
Point
Rel
Hum
%
Delta-T
°C
Wind Press
QNH
hPa
Press
MSL
hPa
Rain
since 9 am
mm
Dir
 
Spd
km/h
Gust
km/h
Spd
kts
Gust
kts
01/07:30am 17.6 10.8 14.7 83 1.7 SSW 44 54 24 29 1005.1 - -
01/07:20am 17.5 11.0 15.1 86 1.4 SSW 43 52 23 28 1005.1 - -
01/07:10am 17.6 11.0 15.4 87 1.3 SSW 44 54 24 29 1004.8 - -
01/07:00am 17.8 11.5 15.7 87 1.2 SSW 43 50 23 27 1004.4 - -
01/06:50am 18.0 11.8 16.0 88 1.2 SSW 43 52 23 28 1004.1 - -
01/06:40am 18.4 12.3 16.3 87 1.3 SSW 43 50 23 27 1004.1 - -
01/06:30am 19.1 13.7 16.9 87 1.3 SSW 41 52 22 28 1003.2 - -
01/06:20am 19.5 17.5 17.3 87 1.3 SW 24 30 13 16 1002.4 - -
01/06:10am 19.5 17.8 17.2 86 1.4 WSW 22 30 12 16 1002.4 - -
01/06:00am 19.5 18.4 17.2 86 1.4 WSW 19 24 10 13 1002.5 - -
01/05:50am 19.5 19.1 17.2 86 1.4 WSW 15 20 8 11 1002.5 - -
01/05:40am 19.5 19.1 17.2 86 1.4 WSW 15 20 8 11 1002.3 - -
01/05:30am 19.6 18.9 17.3 86 1.4 WSW 17 19 9 10 1002.5 - -
01/05:20am 19.6 18.9 17.3 86 1.4 WSW 17 20 9 11 1002.2 - -
01/05:10am 19.6 20.4 17.2 86 1.5 WSW 9 17 5 9 1002.3 - -
01/05:00am 19.7 21.4 17.2 85 1.5 WSW 4 11 2 6 1002.3 - -
01/04:50am 19.5 21.2 17.1 86 1.5 SW 4 7 2 4 1002.3 - -
01/04:40am 19.5 21.5 16.9 85 1.6 WSW 2 6 1 3 1002.6 - -
01/04:30am 19.5 21.9 16.9 85 1.6 CALM 0 4 0 2 1002.4 - -
01/04:20am 19.5 21.5 16.9 85 1.6 SSW 2 6 1 3 1002.3 - -
01/04:10am 19.6 20.3 17.1 85 1.5 S 9 13 5 7 1001.9 - -
01/04:00am 19.5 20.8 17.2 86 1.4 SSW 6 9 3 5 1002.2 - -
01/03:50am 19.6 20.8 17.3 86 1.4 SSW 7 11 4 6 1002.5 - -
01/03:40am 19.7 20.2 17.5 87 1.3 SSW 11 15 6 8 1003.0 - -
01/03:30am 19.6 19.0 17.6 88 1.2 SSW 17 22 9 12 1003.7 - -
01/03:20am 19.6 19.8 17.7 89 1.2 SSW 13 19 7 10 1004.1 - -
01/03:10am 19.6 19.9 17.8 89 1.1 SSW 13 17 7 9 1004.2 - -
01/03:00am 19.6 19.1 17.7 89 1.2 SSW 17 19 9 10 1004.0 - -
01/02:50am 19.6 18.6 17.6 88 1.2 S 19 22 10 12 1003.9 - -
01/02:40am 19.7 18.2 17.6 88 1.3 SSW 22 28 12 15 1004.3 - -
01/02:30am 19.9 16.8 17.6 86 1.4 SSW 30 35 16 19 1004.6 - -
01/02:20am 20.0 15.9 17.4 85 1.6 SSW 35 43 19 23 1004.6 - -
01/02:10am 20.2 15.6 17.1 82 1.9 SW 37 46 20 25 1004.5 - -
01/02:00am 20.7 14.8 16.7 78 2.4 SW 43 52 23 28 1004.1 - -
01/01:50am 22.1 17.6 16.4 70 3.5 SW 35 46 19 25 1003.9 - -
01/01:40am 22.9 19.9 16.9 69 3.7 W 28 61 15 33 1003.6 - -
01/01:30am 22.6 22.9 17.0 70 3.4 WNW 11 54 6 29 1002.6 - -
01/01:20am 22.6 21.2 16.9 70 3.5 NNE 20 30 11 16 1001.6 - -
01/01:10am 22.6 19.2 16.7 69 3.6 NNE 30 46 16 25 1001.4 - -
01/01:00am 22.3 18.5 16.7 70 3.4 NNE 32 44 17 24 1001.4 - -
01/12:50am 22.4 17.9 16.5 69 3.6 NNE 35 43 19 23 1000.9 - -
01/12:40am 22.3 17.0 16.3 69 3.6 NNE 39 44 21 24 1000.4 - -
01/12:30am 22.0 16.3 16.2 69 3.5 NNE 41 46 22 25 1000.1 - -
01/12:20am 21.1 14.1 15.4 70 3.4 NE 46 54 25 29 1000.0 - -
01/12:10am 21.9 15.5 16.8 73 3.1 NNE 46 52 25 28 1000.5 - -
01/12:00am 21.8 16.1 17.3 75 2.8 NNE 43 46 23 25 1000.8 - -
 
Date/Time
EDT
Temp
°C
App
Temp
°C
Dew
Point
Rel
Hum
%
Delta-T
°C
Wind Press
QNH
hPa
Press
MSL
hPa
Rain
since 9 am
mm
Dir
 
Spd
km/h
Gust
km/h
Spd
kts
Gust
kts
28/11:50pm 21.6 16.0 17.5 77 2.5 NNE 43 48 23 26 1000.9 - -
28/11:40pm 21.3 16.2 17.6 79 2.3 NNE 41 48 22 26 1001.2 - -
28/11:30pm 21.3 16.2 17.6 79 2.3 NNE 41 46 22 25 1001.5 - -
28/11:20pm 21.4 16.2 17.4 78 2.5 NNE 41 46 22 25 1001.7 - -
28/11:10pm 21.3 16.3 17.1 77 2.6 NNE 39 44 21 24 1001.9 - -
28/11:00pm 21.3 16.3 17.0 76 2.6 NNE 39 44 21 24 1002.0 - -
28/10:50pm 21.4 16.3 16.7 74 2.9 NNE 39 44 21 24 1002.2 - -
28/10:40pm 21.5 16.7 16.6 73 3.0 NNE 37 43 20 23 1002.2 - -
28/10:30pm 21.4 16.7 16.8 75 2.8 NE 37 43 20 23 1002.1 - -
28/10:20pm 21.3 16.6 16.9 76 2.7 NE 37 43 20 23 1002.1 - -
28/10:10pm 21.4 18.0 16.8 75 2.8 NE 30 37 16 20 1002.4 - -
28/10:00pm 21.4 17.9 16.6 74 2.9 NE 30 32 16 17 1002.4 - -
28/09:50pm 21.2 17.7 16.6 75 2.8 NE 30 32 16 17 1002.5 - -
28/09:40pm 21.1 17.3 16.8 76 2.6 NE 32 33 17 18 1002.4 - -
28/09:30pm 21.2 18.1 16.6 75 2.8 NE 28 32 15 17 1002.6 - -
28/09:20pm 21.2 18.4 16.3 73 3.0 NE 26 28 14 15 1002.9 - -
28/09:10pm 21.3 20.2 16.3 73 3.0 NE 17 22 9 12 1003.1 - -
28/09:00pm 21.1 19.7 16.6 75 2.7 NE 19 20 10 11 1003.4 - -
28/08:50pm 21.3 20.5 16.2 72 3.1 NE 15 19 8 10 1003.5 - -
28/08:40pm 21.0 20.3 16.3 74 2.8 NE 15 19 8 10 1003.5 - -
28/08:30pm 20.9 19.9 16.6 76 2.6 NE 17 20 9 11 1003.6 - -
28/08:20pm 20.8 20.9 16.5 76 2.6 NE 11 15 6 8 1003.9 - -
28/08:10pm 20.9 21.8 16.1 74 2.9 NNE 6 11 3 6 1004.4 - -
28/08:00pm 20.8 22.8 16.0 74 2.9 CALM 0 2 0 1 1004.5 - -
28/07:50pm 20.8 22.8 16.1 74 2.8 CALM 0 4 0 2 1004.4 - -
28/07:40pm 20.9 22.5 16.0 73 2.9 NNE 2 7 1 4 1004.2 - -
28/07:30pm 20.8 21.8 16.3 75 2.7 NE 6 7 3 4 1003.9 - -
28/07:20pm 21.0 21.0 16.3 74 2.8 NNE 11 15 6 8 1004.0 - -
28/07:10pm 20.9 22.9 16.0 73 2.9 CALM 0 6 0 3 1004.0 - -
28/07:00pm 20.9 22.9 16.0 73 2.9 CALM 0 2 0 1 1004.1 - -
28/06:50pm 20.9 22.8 15.8 72 3.1 CALM 0 2 0 1 1004.1 - -
28/06:40pm 20.9 22.9 16.0 73 2.9 CALM 0 2 0 1 1004.3 - -
28/06:20pm 21.6 23.2 16.8 74 2.9 - 4 9 2 5 1004.4 - -
28/06:10pm 21.8 22.8 16.8 73 3.1 N 7 15 4 8 1004.3 - -
28/06:00pm 22.1 24.0 16.7 71 3.3 N 2 7 1 4 1004.3 - -
28/05:50pm 22.2 23.9 16.3 69 3.6 SW 2 7 1 4 1004.4 - -
28/05:40pm 21.9 22.8 16.2 70 3.4 SW 6 9 3 5 1004.3 - -
28/05:30pm 21.6 22.4 16.3 72 3.2 SW 7 9 4 5 1004.3 - -
28/05:20pm 21.4 22.2 16.3 72 3.1 SW 7 9 4 5 1004.4 - -
28/05:10pm 21.4 22.4 16.4 73 3.0 WSW 6 9 3 5 1004.7 - -
28/05:00pm 21.4 22.5 16.6 74 2.9 WSW 6 7 3 4 1005.0 - -
28/04:50pm 21.4 22.9 16.7 74 2.9 WSW 4 7 2 4 1005.1 - -
28/04:40pm 21.8 22.9 16.7 73 3.1 W 6 9 3 5 1005.3 - -
28/04:30pm 22.2 23.4 16.8 71 3.3 WNW 6 7 3 4 1005.4 - -
28/04:20pm 22.4 23.7 17.0 71 3.3 WNW 6 7 3 4 1005.4 - -
28/04:10pm 22.2 23.9 17.2 73 3.1 WNW 4 7 2 4 1005.2 - -
28/04:00pm 22.0 23.7 17.2 74 3.0 NW 4 7 2 4 1005.2 - -
28/03:50pm 21.6 22.8 16.9 74 2.9 NW 6 7 3 4 1005.1 - -
28/03:40pm 21.5 22.4 16.6 73 3.0 NNW 7 9 4 5 1005.2 - -
28/03:30pm 21.7 22.8 16.6 73 3.1 N 6 9 3 5 1005.1 - -
28/03:20pm 21.5 22.9 16.5 73 3.0 - 4 6 2 3 1005.1 - -
28/03:10pm 21.5 22.6 16.6 73 3.0 - 6 7 3 4 1005.2 - -
28/03:00pm 21.7 22.7 16.8 73 3.0 N 7 7 4 4 1005.2 - -
28/02:50pm 21.6 22.8 16.9 74 2.9 N 6 7 3 4 1005.3 - -
28/02:40pm 21.4 22.4 16.9 75 2.7 N 7 9 4 5 1005.4 - -
28/02:30pm 21.5 22.2 17.1 76 2.7 N 9 9 5 5 1005.5 - -
28/02:20pm 21.3 21.9 16.8 75 2.7 N 9 11 5 6 1005.5 - -
28/02:10pm 21.6 21.9 16.9 74 2.9 N 11 13 6 7 1005.6 - -
28/02:00pm 21.9 22.2 17.1 74 2.9 - 11 13 6 7 1005.6 - -
28/01:50pm 22.0 21.6 17.1 74 3.0 N 15 17 8 9 1005.7 - -
28/01:40pm 22.1 21.7 17.2 74 3.0 N 15 17 8 9 1005.9 - -
28/01:30pm 21.9 21.8 17.0 73 3.0 N 13 15 7 8 1006.0 - -
28/01:20pm 21.6 21.8 16.7 73 3.0 N 11 15 6 8 1006.0 - -
28/01:10pm 21.4 21.2 16.6 74 2.9 NNE 13 19 7 10 1006.1 - -
28/01:00pm 21.1 20.0 16.3 74 2.9 NNE 17 19 9 10 1006.1 - -
28/12:50pm 21.4 20.5 16.8 75 2.8 NNE 17 20 9 11 1006.3 - -
28/12:40pm 21.2 20.3 16.9 76 2.6 NNE 17 22 9 12 1006.4 - -
28/12:30pm 21.3 20.0 17.2 77 2.5 NNE 20 24 11 13 1006.4 - -
28/12:20pm 20.9 19.8 17.2 79 2.3 N 19 22 10 12 1006.7 - -
28/12:10pm 20.7 19.6 17.2 80 2.1 N 19 20 10 11 1007.0 - -
28/12:00pm 20.5 19.3 17.0 80 2.1 N 19 22 10 12 1007.1 - -
28/11:50am 20.6 19.4 17.0 80 2.2 N 19 22 10 12 1007.1 - -
28/11:40am 20.8 19.4 17.1 79 2.3 N 20 24 11 13 1007.1 - -
28/11:10am 20.6 19.2 17.1 80 2.1 NNE 20 26 11 14 1007.5 - -
28/11:00am 20.6 18.4 17.0 80 2.2 NNE 24 28 13 15 1007.1 - -
28/10:50am 20.8 18.2 16.9 78 2.4 NE 26 32 14 17 1006.9 - -
28/10:40am 21.0 18.0 16.9 77 2.5 NE 28 33 15 18 1006.8 - -
28/10:30am 21.0 18.0 16.8 77 2.6 NE 28 33 15 18 1006.7 - -
28/10:20am 20.8 17.7 16.6 77 2.5 NE 28 33 15 18 1006.6 - -
28/10:10am 20.4 17.5 16.2 77 2.5 NE 26 30 14 16 1006.8 - -
28/10:00am 20.2 17.3 16.0 77 2.5 NE 26 30 14 16 1007.0 - -
28/09:50am 20.2 17.6 16.0 77 2.5 NE 24 30 13 16 1007.2 - -
28/09:40am 20.1 17.9 16.0 77 2.5 NNE 22 26 12 14 1007.4 - -
28/09:30am 20.0 18.1 15.8 77 2.5 NE 20 24 11 13 1007.4 - -
28/09:20am 20.0 18.2 15.9 77 2.4 NE 20 24 11 13 1007.4 - -
28/09:10am 20.0 18.4 16.0 78 2.4 NE 19 22 10 12 1007.5 - -
28/09:00am 19.7 18.4 15.9 79 2.3 NE 17 20 9 11 1007.6 - -
28/08:50am 19.4 18.9 15.9 80 2.1 NE 13 17 7 9 1007.9 - -
28/08:40am 19.1 18.9 15.8 81 2.0 NE 11 13 6 7 1008.1 - -
28/08:30am 18.9 18.8 15.9 83 1.8 NE 11 15 6 8 1008.2 - -
28/08:20am 18.9 19.2 16.0 83 1.7 NE 9 11 5 6 1008.2 - -
28/08:10am 18.7 18.9 15.8 83 1.7 NE 9 13 5 7 1008.1 - -
28/08:00am 18.6 19.2 15.7 83 1.7 ENE 7 11 4 6 1008.0 - -
28/07:50am 18.6 19.1 15.6 83 1.8 ENE 7 11 4 6 1008.0 - -
28/07:40am 18.5 18.6 15.5 83 1.8 ENE 9 11 5 6 1008.0 - -
28/07:30am 18.5 18.9 15.4 82 1.8 ENE 7 13 4 7 1008.1 - -
28/07:20am 18.4 19.0 15.3 82 1.8 E 6 7 3 4 1008.3 - -
28/07:10am 18.4 19.3 15.1 81 1.9 ENE 4 6 2 3 1008.4 - -
28/07:00am 18.3 18.8 14.9 80 2.0 ENE 6 7 3 4 1008.3 - -
28/06:50am 18.2 19.0 14.8 80 2.0 E 4 6 2 3 1008.5 - -
28/06:40am 18.2 18.9 14.6 79 2.1 E 4 7 2 4 1008.4 - -
28/06:30am 18.1 19.1 14.4 79 2.1 E 2 6 1 3 1008.4 - -
28/06:20am 18.1 19.5 14.3 78 2.2 CALM 0 4 0 2 1008.6 - -
28/06:10am 18.0 19.3 14.2 78 2.2 CALM 0 2 0 1 1008.6 - -
28/05:50am 18.0 19.3 14.2 78 2.2 CALM 0 2 0 1 1008.8 - -
28/05:40am 18.0 19.3 14.2 78 2.2 CALM 0 2 0 1 1008.8 - -
28/05:30am 18.1 19.5 14.3 78 2.2 CALM 0 2 0 1 1008.9 - -
28/05:20am 18.1 19.5 14.3 78 2.2 CALM 0 0 0 0 1009.1 - -
28/05:10am 18.2 19.6 14.4 78 2.2 CALM 0 4 0 2 1009.0 - -
28/05:00am 18.2 19.2 14.4 78 2.2 ESE 2 4 1 2 1009.0 - -
28/04:50am 18.2 19.2 14.3 78 2.2 SE 2 6 1 3 1009.1 - -
28/04:40am 18.2 19.2 14.3 78 2.2 SE 2 6 1 3 1009.2 - -
28/04:30am 18.2 19.2 14.2 77 2.3 SE 2 4 1 2 1009.4 - -
28/04:20am 18.1 19.4 14.2 78 2.2 CALM 0 2 0 1 1009.5 - -
28/04:10am 18.1 19.4 14.2 78 2.2 CALM 0 4 0 2 1009.6 - -
28/04:00am 18.1 19.1 14.2 78 2.2 SE 2 6 1 3 1009.5 - -
28/03:50am 18.1 19.1 14.3 78 2.2 SE 2 6 1 3 1009.7 - -
28/03:40am 18.1 19.5 14.3 78 2.2 CALM 0 2 0 1 1009.8 - -
28/03:30am 18.1 19.5 14.3 78 2.2 CALM 0 2 0 1 1009.9 - -
28/03:20am 18.2 19.6 14.3 78 2.2 CALM 0 0 0 0 1010.0 - -
28/03:10am 18.2 19.6 14.4 78 2.2 CALM 0 0 0 0 1010.2 - -
28/03:00am 18.2 19.6 14.5 79 2.1 CALM 0 0 0 0 1010.3 - -
28/02:50am 18.3 19.8 14.6 79 2.1 CALM 0 0 0 0 1010.4 - -
28/02:40am 18.3 19.8 14.7 79 2.1 CALM 0 2 0 1 1010.5 - -
28/02:30am 18.3 19.9 14.8 80 2.0 CALM 0 0 0 0 1010.6 - -
28/02:20am 18.4 20.0 14.9 80 2.0 CALM 0 2 0 1 1010.7 - -
28/02:10am 18.4 20.0 15.0 80 2.0 CALM 0 4 0 2 1010.8 - -
28/02:00am 18.4 19.6 15.0 80 2.0 S 2 4 1 2 1010.8 - -
28/01:50am 18.4 20.0 15.0 80 2.0 CALM 0 2 0 1 1010.8 - -
28/01:40am 18.3 19.9 14.9 80 2.0 CALM 0 0 0 0 1010.8 - -
28/01:30am 18.3 19.9 15.0 81 1.9 CALM 0 4 0 2 1010.8 - -
28/01:20am 18.3 19.9 15.0 81 1.9 CALM 0 0 0 0 1010.9 - -
28/01:10am 18.4 20.0 15.0 80 2.0 CALM 0 2 0 1 1011.0 - -
28/01:00am 18.4 20.0 15.0 80 2.0 CALM 0 4 0 2 1011.0 - -
28/12:50am 18.5 19.4 15.0 80 2.0 S 4 7 2 4 1011.1 - -
28/12:40am 18.6 19.1 15.0 79 2.1 S 6 9 3 5 1011.2 - -
28/12:30am 18.6 19.1 15.0 79 2.1 S 6 7 3 4 1011.1 - -
28/12:20am 18.6 19.4 14.9 79 2.2 S 4 6 2 3 1011.1 - -
28/12:10am 18.4 18.8 14.8 79 2.1 S 6 9 3 5 1011.1 - -
28/12:00am 18.6 19.2 15.2 80 2.0 S 6 7 3 4 1011.0 - -
 
Date/Time
EDT
Temp
°C
App
Temp
°C
Dew
Point
Rel
Hum
%
Delta-T
°C
Wind Press
QNH
hPa
Press
MSL
hPa
Rain
since 9 am
mm
Dir
 
Spd
km/h
Gust
km/h
Spd
kts
Gust
kts
27/11:50pm 18.7 19.1 15.3 80 2.0 S 7 11 4 6 1011.1 - -
27/11:40pm 18.7 19.1 15.3 80 2.0 S 7 11 4 6 1011.2 - -
27/11:30pm 18.7 19.1 15.4 81 1.9 S 7 9 4 5 1011.2 - -
27/11:20pm 18.8 19.5 15.5 81 1.9 S 6 7 3 4 1011.3 - -
27/11:10pm 18.8 19.9 15.5 81 1.9 S 4 6 2 3 1011.2 - -
27/11:00pm 18.8 20.2 15.4 80 2.0 S 2 4 1 2 1011.1 - -
27/10:50pm 18.8 20.2 15.4 80 2.0 S 2 4 1 2 1011.0 - -
27/10:40pm 18.9 20.3 15.4 80 2.1 S 2 4 1 2 1010.9 - -
27/10:30pm 18.9 20.6 15.2 79 2.2 CALM 0 4 0 2 1010.7 - -
27/10:20pm 18.9 20.6 15.1 78 2.2 CALM 0 0 0 0 1010.6 - -
27/10:10pm 18.8 20.4 14.9 78 2.3 CALM 0 0 0 0 1010.5 - -
27/10:00pm 19.0 20.6 15.0 77 2.3 CALM 0 0 0 0 1010.3 - -
27/09:50pm 18.9 20.5 14.9 77 2.3 CALM 0 0 0 0 1010.3 - -
27/09:40pm 18.9 20.5 15.0 78 2.3 CALM 0 0 0 0 1010.2 - -
27/09:30pm 18.9 20.6 15.1 78 2.2 CALM 0 0 0 0 1010.2 - -
27/09:20pm 19.0 20.7 15.3 79 2.2 CALM 0 0 0 0 1010.2 - -
27/09:10pm 19.0 20.7 15.3 79 2.2 CALM 0 0 0 0 1010.0 - -
27/09:00pm 19.0 20.7 15.3 79 2.2 CALM 0 2 0 1 1009.7 - -
27/08:50pm 19.0 20.7 15.2 78 2.2 CALM 0 2 0 1 1009.6 - -
27/08:40pm 19.0 20.7 15.2 78 2.2 CALM 0 4 0 2 1009.6 - -
27/08:30pm 19.0 20.7 15.2 78 2.2 CALM 0 4 0 2 1009.7 - -
27/08:20pm 19.0 20.7 15.1 78 2.3 CALM 0 2 0 1 1009.7 - -
27/08:10pm 19.1 20.8 15.2 78 2.3 CALM 0 4 0 2 1009.7 - -
27/08:00pm 19.2 20.9 15.2 77 2.4 CALM 0 4 0 2 1009.8 - -
27/07:50pm 19.2 20.9 15.2 77 2.4 CALM 0 4 0 2 1009.9 - -
27/07:40pm 19.2 20.5 15.2 77 2.4 S 2 4 1 2 1010.0 - -
27/07:30pm 19.2 20.6 15.3 78 2.3 S 2 6 1 3 1010.0 - -
27/07:20pm 19.1 20.5 15.3 78 2.2 SSE 2 4 1 2 1009.9 - -
27/07:10pm 19.1 20.5 15.3 78 2.2 SSE 2 7 1 4 1009.8 - -
27/07:00pm 19.1 20.1 15.4 79 2.2 SSE 4 9 2 5 1009.8 - -
27/06:50pm 19.0 19.6 15.4 79 2.1 SSE 6 9 3 5 1009.7 - -
27/06:40pm 19.1 19.5 15.4 79 2.2 S 7 11 4 6 1009.8 - -
27/06:30pm 19.2 19.7 15.5 79 2.2 S 7 11 4 6 1009.9 - -
27/06:10pm 19.2 19.3 15.5 79 2.2 S 9 11 5 6 1009.8 - -
27/06:00pm 19.4 19.5 15.4 77 2.4 S 9 13 5 7 1009.9 - -
27/05:50pm 19.4 19.8 15.4 77 2.4 S 7 13 4 7 1009.9 - -
27/05:40pm 19.5 20.1 15.4 77 2.4 S 6 9 3 5 1009.8 - -
27/05:30pm 19.4 20.3 15.2 76 2.5 SSW 4 7 2 4 1009.7 - -
27/05:20pm 19.3 20.2 15.2 77 2.4 SSW 4 6 2 3 1009.6 - -
27/05:10pm 19.3 20.2 15.2 77 2.4 S 4 6 2 3 1009.6 - -
27/05:00pm 19.2 20.1 15.0 76 2.5 S 4 6 2 3 1009.5 - -
27/04:50pm 19.2 19.6 14.8 75 2.6 S 6 7 3 4 1009.6 - -
27/04:40pm 19.5 19.9 14.8 74 2.7 S 6 9 3 5 1009.8 - -
27/04:30pm 19.9 20.4 14.9 73 2.9 SSW 6 9 3 5 1010.0 - -
27/04:20pm 20.3 21.2 15.2 72 3.0 SSW 4 6 2 3 1009.9 - -
27/04:10pm 20.3 21.6 15.1 72 3.1 SSW 2 6 1 3 1009.9 - -
27/04:00pm 20.2 21.4 14.9 71 3.1 SSW 2 4 1 2 1009.8 - -
27/03:50pm 20.3 21.5 14.8 70 3.2 SSW 2 4 1 2 1009.9 - -
27/03:40pm 20.7 22.2 14.7 68 3.5 CALM 0 2 0 1 1009.9 - -
27/03:30pm 21.2 22.4 14.8 67 3.8 SSW 2 4 1 2 1010.2 - -
27/03:20pm 21.6 22.8 14.9 65 4.0 SSW 2 4 1 2 1010.2 - -
27/03:10pm 22.1 23.4 15.2 65 4.1 SW 2 4 1 2 1010.2 - -
27/03:00pm 22.3 23.7 15.3 64 4.2 SW 2 6 1 3 1010.4 - -
27/02:50pm 22.2 23.6 15.3 65 4.1 SW 2 4 1 2 1010.4 - -
27/02:40pm 22.1 23.5 15.4 65 4.0 SW 2 4 1 2 1010.4 - -
27/02:30pm 22.2 23.5 15.2 64 4.2 SW 2 4 1 2 1010.4 - -
27/02:20pm 22.4 23.7 15.2 63 4.3 SW 2 4 1 2 1010.4 - -
27/02:10pm 22.3 24.0 15.2 64 4.2 CALM 0 2 0 1 1010.4 - -
27/02:00pm 22.1 23.8 15.1 64 4.2 CALM 0 0 0 0 1010.4 - -
27/01:50pm 22.1 23.7 14.9 63 4.3 CALM 0 2 0 1 1010.5 - -
27/01:40pm 22.1 23.7 15.0 64 4.2 CALM 0 0 0 0 1010.6 - -
27/01:30pm 22.1 23.8 15.3 65 4.1 CALM 0 2 0 1 1010.7 - -
27/01:20pm 22.0 23.8 15.4 66 3.9 CALM 0 2 0 1 1010.8 - -
27/01:10pm 21.6 23.4 15.4 68 3.7 CALM 0 0 0 0 1010.7 - -
27/01:00pm 21.4 23.1 15.1 67 3.7 CALM 0 0 0 0 1010.8 - -
27/12:50pm 21.6 23.2 15.0 66 3.9 CALM 0 2 0 1 1010.8 - -
27/12:40pm 22.2 23.9 15.1 64 4.2 CALM 0 2 0 1 1010.7 - -
27/12:30pm 22.3 24.0 15.1 63 4.3 CALM 0 4 0 2 1010.8 - -
27/12:20pm 22.5 23.9 15.3 63 4.3 SW 2 4 1 2 1010.8 - -
27/12:10pm 22.6 24.0 15.3 63 4.4 SW 2 6 1 3 1010.9 - -
27/12:00pm 22.8 23.8 15.4 63 4.4 SW 4 6 2 3 1011.0 - -
27/11:50am 22.8 23.9 15.5 63 4.4 SW 4 7 2 4 1010.9 - -
27/11:40am 22.4 23.4 15.3 64 4.2 SW 4 6 2 3 1010.9 - -
27/11:30am 22.1 23.4 15.1 64 4.2 SW 2 6 1 3 1010.9 - -
27/11:20am 21.8 23.5 15.1 65 4.0 CALM 0 2 0 1 1010.7 - -
27/11:10am 21.4 22.7 15.1 67 3.7 SW 2 4 1 2 1010.7 - -
27/11:00am 21.3 22.2 15.1 67 3.7 SW 4 6 2 3 1010.7 - -
27/10:50am 21.3 22.2 15.0 67 3.7 SW 4 7 2 4 1010.7 - -
27/10:40am 21.2 22.0 14.9 67 3.7 SW 4 6 2 3 1010.6 - -
27/10:30am 21.4 22.2 14.8 66 3.9 SW 4 4 2 2 1010.7 - -
27/10:20am 21.8 23.4 14.9 65 4.1 CALM 0 2 0 1 1010.6 - -
27/10:10am 21.8 23.5 15.2 66 3.9 CALM 0 0 0 0 1010.4 - -
27/10:00am 21.1 22.7 15.0 68 3.6 CALM 0 0 0 0 1010.4 - -
27/09:50am 20.6 22.2 15.0 70 3.3 CALM 0 2 0 1 1010.4 - -
27/09:40am 20.1 21.7 14.9 72 3.1 CALM 0 0 0 0 1010.4 - -
27/09:30am 20.0 21.6 14.9 72 3.0 CALM 0 6 0 3 1010.4 - -
27/09:20am 19.8 21.4 14.8 73 2.9 CALM 0 4 0 2 1010.4 - -
27/09:10am 20.0 21.2 15.0 73 2.9 WSW 2 6 1 3 1010.5 - -
27/09:00am 19.6 20.5 15.1 75 2.6 SW 4 7 2 4 1010.3 - -
27/08:50am 19.6 20.1 15.1 75 2.6 SW 6 7 3 4 1010.2 - -
27/08:40am 19.8 20.5 15.6 77 2.5 SW 6 7 3 4 1010.1 - -
27/08:30am 19.2 19.9 15.7 80 2.1 WSW 6 7 3 4 1009.9 - -
27/08:20am 18.3 19.2 15.2 82 1.8 WSW 4 6 2 3 1009.8 - -
27/08:10am 18.0 18.8 14.9 82 1.8 SW 4 6 2 3 1009.8 - -
27/08:00am 18.0 18.9 15.0 82 1.7 SW 4 6 2 3 1009.7 - -
27/07:50am 18.1 19.0 15.1 82 1.8 SW 4 6 2 3 1009.7 - -
27/07:40am 18.0 19.2 15.0 82 1.7 SW 2 4 1 2 1009.6 - -
27/07:30am 18.0 19.2 15.0 82 1.7 SSW 2 4 1 2 1009.6 - -
27/07:20am 17.8 19.0 14.9 83 1.7 SSW 2 4 1 2 1009.5 - -
27/07:10am 17.8 19.0 14.9 83 1.7 SW 2 4 1 2 1009.4 - -
27/07:00am 17.9 19.2 15.1 84 1.6 SW 2 6 1 3 1009.4 - -
27/06:50am 18.0 18.5 15.1 83 1.7 SW 6 7 3 4 1009.5 - -
27/06:40am 18.0 18.6 15.2 84 1.6 SW 6 7 3 4 1009.5 - -
27/06:30am 17.9 18.8 15.1 84 1.6 SW 4 7 2 4 1009.4 - -
27/06:20am 18.0 18.9 15.2 84 1.6 SSW 4 6 2 3 1009.4 - -
27/06:10am 18.1 19.0 15.2 83 1.7 S 4 7 2 4 1009.4 - -
27/06:00am 18.1 19.0 15.2 83 1.7 SSW 4 7 2 4 1009.5 - -
27/05:50am 18.1 19.4 15.1 82 1.8 SSW 2 6 1 3 1009.5 - -
27/05:40am 18.1 19.4 15.1 82 1.8 SSW 2 4 1 2 1009.6 - -
27/05:30am 18.2 18.8 15.2 82 1.8 SSW 6 9 3 5 1009.6 - -
27/05:20am 18.2 18.8 15.2 82 1.8 SSW 6 7 3 4 1009.8 - -
27/05:10am 18.2 19.1 15.2 82 1.8 SSW 4 9 2 5 1009.7 - -
27/05:00am 18.2 18.6 15.2 82 1.8 SSW 7 13 4 7 1009.8 - -
27/04:50am 18.3 18.6 15.1 81 1.9 SSW 7 11 4 6 1009.9 - -
27/04:40am 18.3 18.6 15.1 81 1.9 SSW 7 9 4 5 1010.0 - -
27/04:20am 18.2 18.1 14.9 81 1.9 SSW 9 13 5 7 1010.2 - -
27/04:10am 18.3 18.2 14.9 80 2.0 SSW 9 11 5 6 1010.3 - -
27/04:00am 18.3 17.8 15.0 81 1.9 SSW 11 13 6 7 1010.4 - -
27/03:50am 18.3 18.3 15.1 81 1.9 SSW 9 11 5 6 1010.3 - -
27/03:40am 18.3 17.9 15.1 81 1.9 SSW 11 13 6 7 1010.4 - -
27/03:30am 18.4 18.4 15.2 81 1.9 SSW 9 11 5 6 1010.4 - -
27/03:20am 18.4 18.4 15.2 81 1.9 SSW 9 13 5 7 1010.5 - -
27/03:10am 18.4 18.0 15.2 81 1.9 SSW 11 13 6 7 1010.6 - -
27/03:00am 18.3 18.3 15.3 83 1.8 SSW 9 13 5 7 1010.6 - -
27/02:50am 18.4 18.1 15.4 83 1.8 SSW 11 13 6 7 1010.7 - -
27/02:40am 18.5 18.5 15.2 81 1.9 SSW 9 13 5 7 1010.7 - -
27/02:30am 18.5 18.0 15.0 80 2.0 SSW 11 13 6 7 1010.7 - -
27/02:20am 18.4 17.5 14.8 79 2.1 SSW 13 17 7 9 1010.8 - -
27/02:10am 18.4 17.1 14.8 79 2.1 SSW 15 19 8 10 1010.8 - -
27/02:00am 18.5 17.2 14.7 78 2.2 SSW 15 17 8 9 1010.8 - -
27/01:50am 18.4 17.4 14.6 78 2.2 SSW 13 15 7 8 1010.8 - -
27/01:40am 18.6 18.4 14.7 78 2.3 SSW 9 13 5 7 1010.9 - -
27/01:30am 18.6 18.3 14.5 77 2.4 SSW 9 13 5 7 1010.8 - -
27/01:20am 18.6 18.3 14.3 76 2.5 SSW 9 11 5 6 1010.8 - -
27/01:10am 18.6 17.9 14.3 76 2.5 SSW 11 13 6 7 1010.8 - -
 
Date/Time
EDT
Temp
°C
App
Temp
°C
Dew
Point
Rel
Hum
%
Delta-T
°C
Wind Press
QNH
hPa
Press
MSL
hPa
Rain
since 9 am
mm
Dir
 
Spd
km/h
Gust
km/h
Spd
kts
Gust
kts
26/11:50pm 18.5 18.3 14.8 79 2.2 SW 9 13 5 7 1011.0 - -
26/11:40pm 18.6 18.1 14.9 79 2.2 SSW 11 13 6 7 1011.0 - -
26/11:30pm 18.7 18.7 15.1 79 2.1 SSW 9 13 5 7 1011.1 - -
26/11:20pm 18.7 18.3 15.2 80 2.1 SSW 11 15 6 8 1011.2 - -
26/11:10pm 18.7 18.0 15.3 80 2.0 SSW 13 17 7 9 1011.2 - -
26/11:00pm 18.8 18.1 15.5 81 1.9 SSW 13 17 7 9 1011.1 - -
26/10:50pm 18.8 17.8 15.5 81 1.9 SSW 15 17 8 9 1011.0 - -
26/10:40pm 18.8 17.8 15.5 81 1.9 SSW 15 17 8 9 1011.0 - -
26/10:30pm 18.9 17.4 15.4 80 2.1 SSW 17 20 9 11 1010.9 - -
26/10:20pm 18.9 17.0 15.3 79 2.1 SSW 19 22 10 12 1010.7 - -
26/10:10pm 18.9 17.1 15.4 80 2.1 SSW 19 22 10 12 1010.6 - -
26/10:00pm 18.8 17.0 15.4 80 2.0 SSW 19 22 10 12 1010.4 - -
26/09:50pm 18.8 17.4 15.5 81 1.9 SSW 17 20 9 11 1010.2 - -
26/09:40pm 18.9 17.5 15.5 80 2.0 SSW 17 20 9 11 1010.2 - -
26/09:30pm 18.8 17.0 15.5 81 1.9 SSW 19 22 10 12 1010.0 - -
26/09:20pm 18.9 17.1 15.6 81 2.0 SSW 19 22 10 12 1009.9 - -
26/09:10pm 19.0 17.3 15.8 82 1.9 SSW 19 20 10 11 1009.7 - -
26/09:00pm 19.1 17.2 15.8 81 2.0 SSW 20 22 11 12 1009.7 - -
26/08:50pm 19.3 17.7 15.9 81 2.0 SSW 19 22 10 12 1009.6 - -
26/08:40pm 19.3 17.7 15.9 81 2.0 SSW 19 22 10 12 1009.5 - -
26/08:30pm 19.3 17.5 15.9 81 2.0 SSW 20 24 11 13 1009.3 - -
26/08:20pm 19.3 17.1 16.0 81 2.0 SSW 22 24 12 13 1009.2 - -
26/08:10pm 19.4 17.6 16.1 81 2.0 SSW 20 24 11 13 1009.1 - -
26/08:00pm 19.4 17.6 16.1 81 2.0 SSW 20 24 11 13 1009.0 - -
26/07:50pm 19.5 17.9 16.1 81 2.0 SSW 19 22 10 12 1008.9 - -
26/07:40pm 19.6 17.8 16.1 80 2.1 SSW 20 24 11 13 1008.9 - -
26/07:30pm 19.6 17.5 16.2 81 2.0 SSW 22 26 12 14 1008.9 - -
26/07:20pm 19.6 17.9 16.2 81 2.0 SSW 20 24 11 13 1008.9 - -
26/07:10pm 19.7 17.6 16.2 80 2.1 SSW 22 24 12 13 1008.8 - -
26/07:00pm 19.8 17.7 16.2 80 2.2 SSW 22 28 12 15 1008.8 - -
26/06:50pm 19.8 17.8 16.4 81 2.0 SSW 22 28 12 15 1008.8 - -
26/06:40pm 19.8 17.8 16.4 81 2.0 SSW 22 28 12 15 1008.8 - -
26/06:30pm 19.8 18.3 16.4 81 2.0 SSW 19 26 10 14 1008.7 - -
26/06:20pm 19.8 18.1 16.3 80 2.1 SSW 20 26 11 14 1008.7 - -
26/06:10pm 19.9 17.9 16.4 80 2.1 SSW 22 26 12 14 1008.6 - -
26/06:00pm 20.1 18.1 16.4 79 2.2 SSW 22 26 12 14 1008.5 - -
26/05:50pm 20.1 18.1 16.4 79 2.2 SSW 22 24 12 13 1008.4 - -
26/05:40pm 20.2 18.1 16.2 78 2.4 SSW 22 24 12 13 1008.3 - -
26/05:30pm 20.2 18.5 16.2 78 2.4 SSW 20 26 11 14 1008.2 - -
26/05:20pm 20.2 18.6 16.1 77 2.5 SSW 19 22 10 12 1008.2 - -
26/05:10pm 20.1 18.5 16.1 78 2.4 SSW 19 24 10 13 1008.1 - -
26/05:00pm 20.2 18.4 16.1 77 2.5 SW 20 26 11 14 1008.1 - -
26/04:50pm 20.2 18.4 16.1 77 2.5 SSW 20 24 11 13 1008.2 - -
26/04:40pm 20.1 17.5 16.0 77 2.5 SSW 24 35 13 19 1008.2 - -
26/04:20pm 20.3 17.8 16.2 77 2.5 SW 24 30 13 16 1008.2 - -
26/04:10pm 20.3 17.8 16.2 77 2.5 SSW 24 28 13 15 1008.3 - -
26/04:00pm 20.4 17.5 16.2 77 2.5 SSW 26 32 14 17 1008.4 - -
26/03:50pm 20.4 17.9 16.2 77 2.5 SSW 24 28 13 15 1008.4 - -
26/03:40pm 20.4 17.5 16.1 76 2.6 SSW 26 32 14 17 1008.3 - -
26/03:30pm 20.5 17.6 16.2 76 2.6 SSW 26 30 14 16 1008.3 - -
26/03:20pm 20.7 17.8 16.2 75 2.7 SW 26 32 14 17 1008.2 - -
26/03:10pm 20.9 18.0 16.2 74 2.8 SSW 26 32 14 17 1008.4 - -
26/03:00pm 21.1 18.6 16.2 73 3.0 SSW 24 30 13 16 1008.5 - -
26/02:50pm 21.3 19.2 16.2 72 3.1 SSW 22 30 12 16 1008.5 - -
26/02:40pm 21.5 19.4 16.3 72 3.1 SW 22 30 12 16 1008.3 - -
26/02:30pm 21.5 19.1 16.5 73 3.0 SW 24 28 13 15 1008.3 - -
26/02:20pm 21.6 18.9 16.6 73 3.0 SW 26 30 14 16 1008.3 - -
26/02:10pm 21.6 19.0 16.8 74 2.9 SW 26 32 14 17 1008.3 - -
26/02:00pm 21.6 19.4 16.8 74 2.9 SW 24 28 13 15 1008.4 - -
26/01:50pm 21.4 19.5 16.8 75 2.8 SW 22 26 12 14 1008.2 - -
26/01:40pm 21.4 19.2 16.8 75 2.8 SW 24 30 13 16 1008.3 - -
26/01:30pm 21.5 19.3 16.9 75 2.8 SW 24 28 13 15 1008.4 - -
26/01:20pm 21.4 19.3 17.1 76 2.6 SW 24 26 13 14 1008.3 - -
26/01:10pm 21.1 18.9 17.0 77 2.5 SSW 24 28 13 15 1008.4 - -
26/01:00pm 21.0 18.9 17.1 78 2.4 SSW 24 28 13 15 1008.4 - -
26/12:50pm 20.8 19.1 17.1 79 2.3 SW 22 26 12 14 1008.4 - -
26/12:40pm 20.4 17.9 17.0 81 2.1 SSW 26 32 14 17 1008.3 - -
26/12:30pm 20.1 17.1 16.8 81 2.0 SW 28 32 15 17 1008.3 - -
26/12:20pm 20.1 17.5 16.8 81 2.0 SW 26 32 14 17 1008.2 - -
26/12:10pm 20.0 18.1 16.8 82 1.9 SW 22 28 12 15 1008.3 - -
26/12:00pm 19.8 18.3 16.7 82 1.9 SW 20 24 11 13 1008.3 - -
26/11:50am 19.7 17.8 16.7 83 1.8 SW 22 28 12 15 1008.3 - -
26/11:40am 19.5 18.5 16.6 83 1.7 SW 17 20 9 11 1008.2 - -
26/11:30am 19.4 19.2 16.6 84 1.7 SW 13 17 7 9 1008.1 - -
26/11:20am 19.3 19.4 16.5 84 1.7 WSW 11 13 6 7 1008.1 - -
26/11:10am 19.2 18.9 16.5 84 1.6 SW 13 15 7 8 1008.1 - -
26/11:00am 19.2 18.9 16.5 84 1.6 WSW 13 17 7 9 1008.1 - -
26/10:50am 19.2 19.3 16.4 84 1.7 WSW 11 15 6 8 1008.1 - -
26/10:40am 19.1 19.1 16.3 84 1.7 WSW 11 13 6 7 1008.2 - -
26/10:30am 19.1 19.4 16.1 83 1.8 WSW 9 13 5 7 1008.0 - -
26/10:20am 19.0 19.3 16.0 83 1.8 WSW 9 11 5 6 1007.9 - -
26/10:10am 18.8 19.4 15.8 83 1.8 WSW 7 11 4 6 1007.9 - -
26/10:00am 18.7 18.8 15.6 82 1.8 WSW 9 11 5 6 1007.9 - -
26/09:50am 18.6 18.8 15.7 83 1.7 WSW 9 11 5 6 1007.8 - -
26/09:40am 18.7 19.5 15.8 83 1.7 WSW 6 7 3 4 1007.7 - -
26/09:30am 18.6 19.8 15.8 84 1.7 W 4 6 2 3 1007.7 - -
26/09:20am 18.5 19.6 15.6 83 1.7 W 4 6 2 3 1007.6 - -
26/09:10am 18.6 20.1 15.6 83 1.8 WNW 2 4 1 2 1007.4 - -
26/08:50am 18.5 19.5 15.3 81 1.9 WNW 4 6 2 3 1007.5 - -
26/08:40am 18.4 19.3 15.2 81 1.9 NW 4 6 2 3 1007.5 - -
26/08:30am 18.3 19.2 15.1 81 1.9 NW 4 7 2 4 1007.5 - -
26/08:20am 18.2 18.7 15.0 81 1.9 NW 6 7 3 4 1007.5 - -
26/08:10am 18.1 18.4 15.0 82 1.8 NW 7 11 4 6 1007.5 - -
26/08:00am 18.1 18.0 15.0 82 1.8 NW 9 13 5 7 1007.6 - -
26/07:50am 18.1 17.6 15.0 82 1.8 N 11 15 6 8 1007.5 - -
26/07:40am 18.1 17.6 14.9 81 1.9 - 11 13 6 7 1007.4 - -

Other Formats:

Comma delimited format used in spreadsheet applications
http://www.bom.gov.au/fwo/IDV60801/IDV60801.55039.axf

JavaScript Object Notation format (JSON) in row-major order
http://www.bom.gov.au/fwo/IDV60801/IDV60801.55039.json